Главная страница
METAR-TAF:

METAR-TAF

Аэропорты :

Leesburg, Виргиния, США

широта: 39-05N, долгота: 077-34W, высота над уровнем моря: 119 м

Текущие метеонаблюдения

Эта сводка был подготовлена 29 минут назад, в 16:15 UTC
Ветер 5 Узел от северо-восточный
Температура 13°C
Влажность 88%
Давление 1012 hPa
Видимость: 16.1 км
Рассеянная облачность на высоте 1700 фута
Сплошная облачность на высоте 2300 фута

METAR: KJYO 121615Z AUTO 04005KT 10SM BKN017 OVC023 13/11 A2989 RMK AO2

Время: 12:44 (16:44 UTC)


TAF: отсутствует

Метеонаблюдения и прогнозы для более 4000 аэропортов (сводки METAR и TAF).

Имеющиеся станции представлены на карте желтыми и красными точками.

Чтобы увидеть название станции, наведите на нее мышь.

Затем щелкните, чтобы увидеть метеонаблюдения и метеопрогнозы.

Управление картой: чтобы увеличить масштаб, щелкните зеленые кнопки с черным крестиком; чтобы уменьшить масштаб, щелкните зеленую кнопку с тире; для просмотра соседних карт щелкайте зеленые стрелки.


METAR-TAF: